sensor_id;sensor_type;location;lat;lon;timestamp;P1;durP1;ratioP1;P2;durP2;ratioP2
64018;SDS011;66942;52.138;5.216;2023-10-19T00:01:14;14.3;;;13.5;;
64018;SDS011;66942;52.138;5.216;2023-10-19T00:04:27;14.4;;;13.6;;
64018;SDS011;66942;52.138;5.216;2023-10-19T00:06:03;14.8;;;14.0;;
64018;SDS011;66942;52.138;5.216;2023-10-19T00:07:39;20.11;;;18.7;;
64018;SDS011;66942;52.138;5.216;2023-10-19T00:10:52;13.9;;;13.2;;
64018;SDS011;66942;52.138;5.216;2023-10-19T00:12:29;15.5;;;14.5;;
64018;SDS011;66942;52.138;5.216;2023-10-19T00:14:05;13.5;;;12.8;;
64018;SDS011;66942;52.138;5.216;2023-10-19T00:17:19;15.7;;;14.7;;
64018;SDS011;66942;52.138;5.216;2023-10-19T00:18:55;17.7;;;16.61;;
64018;SDS011;66942;52.138;5.216;2023-10-19T00:20:31;16.4;;;15.4;;
64018;SDS011;66942;52.138;5.216;2023-10-19T00:22:07;14.2;;;13.4;;
64018;SDS011;66942;52.138;5.216;2023-10-19T00:25:20;14.9;;;14.0;;
64018;SDS011;66942;52.138;5.216;2023-10-19T00:26:57;15.7;;;14.8;;
64018;SDS011;66942;52.138;5.216;2023-10-19T00:28:33;17.5;;;16.4;;
64018;SDS011;66942;52.138;5.216;2023-10-19T00:31:46;16.8;;;15.8;;
64018;SDS011;66942;52.138;5.216;2023-10-19T00:33:22;18.41;;;17.11;;
64018;SDS011;66942;52.138;5.216;2023-10-19T00:34:58;22.3;;;20.7;;
64018;SDS011;66942;52.138;5.216;2023-10-19T00:38:10;20.3;;;19.0;;
64018;SDS011;66942;52.138;5.216;2023-10-19T00:39:46;13.3;;;12.6;;
64018;SDS011;66942;52.138;5.216;2023-10-19T00:41:24;18.5;;;17.3;;
64018;SDS011;66942;52.138;5.216;2023-10-19T00:43:02;16.5;;;15.4;;
64018;SDS011;66942;52.138;5.216;2023-10-19T00:46:15;16.0;;;15.1;;
64018;SDS011;66942;52.138;5.216;2023-10-19T00:47:54;16.3;;;15.3;;
64018;SDS011;66942;52.138;5.216;2023-10-19T00:49:31;19.8;;;18.41;;
64018;SDS011;66942;52.138;5.216;2023-10-19T00:52:43;23.2;;;21.4;;
64018;SDS011;66942;52.138;5.216;2023-10-19T00:54:20;21.3;;;19.8;;
64018;SDS011;66942;52.138;5.216;2023-10-19T00:56:01;19.91;;;18.61;;
64018;SDS011;66942;52.138;5.216;2023-10-19T00:59:19;22.5;;;21.0;;
64018;SDS011;66942;52.138;5.216;2023-10-19T01:00:55;17.7;;;16.7;;
64018;SDS011;66942;52.138;5.216;2023-10-19T01:02:31;21.1;;;19.7;;
64018;SDS011;66942;52.138;5.216;2023-10-19T01:04:07;26.4;;;24.5;;
64018;SDS011;66942;52.138;5.216;2023-10-19T01:07:19;23.5;;;21.9;;
64018;SDS011;66942;52.138;5.216;2023-10-19T01:08:55;21.4;;;20.11;;
64018;SDS011;66942;52.138;5.216;2023-10-19T01:10:32;23.9;;;22.3;;
64018;SDS011;66942;52.138;5.216;2023-10-19T01:13:44;23.2;;;21.6;;
64018;SDS011;66942;52.138;5.216;2023-10-19T01:15:21;21.7;;;20.41;;
64018;SDS011;66942;52.138;5.216;2023-10-19T01:16:58;27.9;;;25.7;;
64018;SDS011;66942;52.138;5.216;2023-10-19T01:20:11;26.8;;;24.8;;
64018;SDS011;66942;52.138;5.216;2023-10-19T01:21:48;24.6;;;23.0;;
64018;SDS011;66942;52.138;5.216;2023-10-19T01:23:25;17.7;;;16.7;;
64018;SDS011;66942;52.138;5.216;2023-10-19T01:25:03;27.3;;;25.4;;
64018;SDS011;66942;52.138;5.216;2023-10-19T01:28:16;24.2;;;22.4;;
64018;SDS011;66942;52.138;5.216;2023-10-19T01:29:53;28.6;;;26.3;;
64018;SDS011;66942;52.138;5.216;2023-10-19T01:31:29;27.6;;;25.4;;
64018;SDS011;66942;52.138;5.216;2023-10-19T01:34:41;22.7;;;21.1;;
64018;SDS011;66942;52.138;5.216;2023-10-19T01:36:17;34.6;;;31.7;;
64018;SDS011;66942;52.138;5.216;2023-10-19T01:37:53;32.6;;;29.4;;
64018;SDS011;66942;52.138;5.216;2023-10-19T01:39:30;28.1;;;26.0;;
64018;SDS011;66942;52.138;5.216;2023-10-19T01:42:45;26.3;;;24.3;;
64018;SDS011;66942;52.138;5.216;2023-10-19T01:44:21;26.7;;;24.7;;
64018;SDS011;66942;52.138;5.216;2023-10-19T01:45:57;29.4;;;27.2;;
64018;SDS011;66942;52.138;5.216;2023-10-19T01:49:10;25.1;;;23.3;;
64018;SDS011;66942;52.138;5.216;2023-10-19T01:50:46;23.9;;;22.1;;
64018;SDS011;66942;52.138;5.216;2023-10-19T01:52:22;24.5;;;22.8;;
64018;SDS011;66942;52.138;5.216;2023-10-19T01:55:36;23.6;;;21.8;;
64018;SDS011;66942;52.138;5.216;2023-10-19T01:57:13;20.2;;;19.0;;
64018;SDS011;66942;52.138;5.216;2023-10-19T01:58:49;27.0;;;25.0;;
64018;SDS011;66942;52.138;5.216;2023-10-19T02:00:26;21.1;;;19.7;;
64018;SDS011;66942;52.138;5.216;2023-10-19T02:03:38;28.4;;;26.2;;
64018;SDS011;66942;52.138;5.216;2023-10-19T02:05:15;25.8;;;23.7;;
64018;SDS011;66942;52.138;5.216;2023-10-19T02:06:51;20.5;;;19.11;;
64018;SDS011;66942;52.138;5.216;2023-10-19T02:10:04;25.5;;;23.6;;
64018;SDS011;66942;52.138;5.216;2023-10-19T02:11:41;31.9;;;28.8;;
64018;SDS011;66942;52.138;5.216;2023-10-19T02:13:17;31.2;;;28.6;;
64018;SDS011;66942;52.138;5.216;2023-10-19T02:16:29;22.7;;;21.1;;
64018;SDS011;66942;52.138;5.216;2023-10-19T02:18:05;24.4;;;22.2;;
64018;SDS011;66942;52.138;5.216;2023-10-19T02:19:41;25.3;;;23.4;;
64018;SDS011;66942;52.138;5.216;2023-10-19T02:22:55;24.7;;;22.8;;
64018;SDS011;66942;52.138;5.216;2023-10-19T02:24:32;30.2;;;27.3;;
64018;SDS011;66942;52.138;5.216;2023-10-19T02:26:08;30.2;;;27.6;;
64018;SDS011;66942;52.138;5.216;2023-10-19T02:27:44;33.21;;;30.2;;
64018;SDS011;66942;52.138;5.216;2023-10-19T02:30:56;31.9;;;28.7;;
64018;SDS011;66942;52.138;5.216;2023-10-19T02:32:33;25.8;;;23.5;;
64018;SDS011;66942;52.138;5.216;2023-10-19T02:34:10;28.9;;;26.4;;
64018;SDS011;66942;52.138;5.216;2023-10-19T02:37:24;33.9;;;28.8;;
64018;SDS011;66942;52.138;5.216;2023-10-19T02:39:01;25.5;;;22.9;;
64018;SDS011;66942;52.138;5.216;2023-10-19T02:40:39;23.7;;;21.8;;
64018;SDS011;66942;52.138;5.216;2023-10-19T02:42:15;37.9;;;32.6;;
64018;SDS011;66942;52.138;5.216;2023-10-19T02:45:27;27.9;;;25.4;;
64018;SDS011;66942;52.138;5.216;2023-10-19T02:47:03;21.4;;;19.91;;
64018;SDS011;66942;52.138;5.216;2023-10-19T02:48:39;30.4;;;27.4;;
64018;SDS011;66942;52.138;5.216;2023-10-19T02:51:52;26.7;;;24.4;;
64018;SDS011;66942;52.138;5.216;2023-10-19T02:53:29;45.7;;;29.8;;
64018;SDS011;66942;52.138;5.216;2023-10-19T02:55:05;29.3;;;26.2;;
64018;SDS011;66942;52.138;5.216;2023-10-19T02:58:18;27.3;;;24.7;;
64018;SDS011;66942;52.138;5.216;2023-10-19T02:59:54;28.4;;;25.9;;
64018;SDS011;66942;52.138;5.216;2023-10-19T03:01:30;29.4;;;24.9;;
64018;SDS011;66942;52.138;5.216;2023-10-19T03:04:43;59.4;;;22.1;;
64018;SDS011;66942;52.138;5.216;2023-10-19T03:06:20;29.3;;;24.7;;
64018;SDS011;66942;52.138;5.216;2023-10-19T03:07:57;30.4;;;24.7;;
64018;SDS011;66942;52.138;5.216;2023-10-19T03:09:33;26.2;;;19.2;;
64018;SDS011;66942;52.138;5.216;2023-10-19T03:12:45;25.3;;;21.5;;
64018;SDS011;66942;52.138;5.216;2023-10-19T03:14:21;22.9;;;21.0;;
64018;SDS011;66942;52.138;5.216;2023-10-19T03:15:57;20.41;;;18.91;;
64018;SDS011;66942;52.138;5.216;2023-10-19T03:19:10;28.2;;;25.3;;
64018;SDS011;66942;52.138;5.216;2023-10-19T03:20:46;32.6;;;20.7;;
64018;SDS011;66942;52.138;5.216;2023-10-19T03:22:22;25.3;;;22.8;;
64018;SDS011;66942;52.138;5.216;2023-10-19T03:25:34;24.7;;;22.2;;
64018;SDS011;66942;52.138;5.216;2023-10-19T03:27:10;32.1;;;29.1;;
64018;SDS011;66942;52.138;5.216;2023-10-19T03:28:48;41.5;;;30.3;;
64018;SDS011;66942;52.138;5.216;2023-10-19T03:30:24;24.3;;;21.7;;
64018;SDS011;66942;52.138;5.216;2023-10-19T03:33:37;31.0;;;25.0;;
64018;SDS011;66942;52.138;5.216;2023-10-19T03:35:13;14.4;;;13.5;;
64018;SDS011;66942;52.138;5.216;2023-10-19T03:36:49;22.3;;;19.8;;
64018;SDS011;66942;52.138;5.216;2023-10-19T03:40:01;20.41;;;18.8;;
64018;SDS011;66942;52.138;5.216;2023-10-19T03:41:37;18.7;;;17.2;;
64018;SDS011;66942;52.138;5.216;2023-10-19T03:43:14;36.0;;;25.2;;
64018;SDS011;66942;52.138;5.216;2023-10-19T03:46:27;34.31;;;23.3;;
64018;SDS011;66942;52.138;5.216;2023-10-19T03:48:03;13.9;;;13.0;;
64018;SDS011;66942;52.138;5.216;2023-10-19T03:49:40;15.7;;;14.5;;
64018;SDS011;66942;52.138;5.216;2023-10-19T03:52:52;12.8;;;11.8;;
64018;SDS011;66942;52.138;5.216;2023-10-19T03:54:28;21.3;;;19.3;;
64018;SDS011;66942;52.138;5.216;2023-10-19T03:56:04;36.81;;;23.9;;
64018;SDS011;66942;52.138;5.216;2023-10-19T03:57:41;18.5;;;16.8;;
64018;SDS011;66942;52.138;5.216;2023-10-19T04:00:53;25.9;;;17.3;;
64018;SDS011;66942;52.138;5.216;2023-10-19T04:02:29;22.0;;;19.61;;
64018;SDS011;66942;52.138;5.216;2023-10-19T04:04:05;19.5;;;16.61;;
64018;SDS011;66942;52.138;5.216;2023-10-19T04:07:17;17.61;;;16.11;;
64018;SDS011;66942;52.138;5.216;2023-10-19T04:08:54;13.4;;;12.4;;
64018;SDS011;66942;52.138;5.216;2023-10-19T04:10:30;13.6;;;12.4;;
64018;SDS011;66942;52.138;5.216;2023-10-19T04:13:42;15.2;;;13.7;;
64018;SDS011;66942;52.138;5.216;2023-10-19T04:15:19;11.9;;;11.1;;
64018;SDS011;66942;52.138;5.216;2023-10-19T04:16:55;15.4;;;13.9;;
64018;SDS011;66942;52.138;5.216;2023-10-19T04:18:31;20.7;;;15.7;;
64018;SDS011;66942;52.138;5.216;2023-10-19T04:21:45;26.4;;;14.6;;
64018;SDS011;66942;52.138;5.216;2023-10-19T04:23:22;9.6;;;8.9;;
64018;SDS011;66942;52.138;5.216;2023-10-19T04:24:58;14.6;;;13.3;;
64018;SDS011;66942;52.138;5.216;2023-10-19T04:28:10;18.91;;;11.3;;
64018;SDS011;66942;52.138;5.216;2023-10-19T04:29:47;12.8;;;10.3;;
64018;SDS011;66942;52.138;5.216;2023-10-19T04:31:24;23.6;;;11.3;;
64018;SDS011;66942;52.138;5.216;2023-10-19T04:34:36;25.3;;;10.9;;
64018;SDS011;66942;52.138;5.216;2023-10-19T04:36:13;95.4;;;11.0;;
64018;SDS011;66942;52.138;5.216;2023-10-19T04:37:51;70.2;;;11.8;;
64018;SDS011;66942;52.138;5.216;2023-10-19T04:39:27;81.11;;;14.4;;
64018;SDS011;66942;52.138;5.216;2023-10-19T04:42:40;10.4;;;8.9;;
64018;SDS011;66942;52.138;5.216;2023-10-19T04:44:16;49.8;;;12.6;;
64018;SDS011;66942;52.138;5.216;2023-10-19T04:45:53;24.1;;;9.4;;
64018;SDS011;66942;52.138;5.216;2023-10-19T04:49:05;32.1;;;9.6;;
64018;SDS011;66942;52.138;5.216;2023-10-19T04:50:41;9.1;;;7.5;;
64018;SDS011;66942;52.138;5.216;2023-10-19T04:52:17;12.1;;;8.31;;
64018;SDS011;66942;52.138;5.216;2023-10-19T04:55:29;8.0;;;6.8;;
64018;SDS011;66942;52.138;5.216;2023-10-19T04:57:06;10.3;;;6.9;;
64018;SDS011;66942;52.138;5.216;2023-10-19T04:58:42;8.5;;;7.8;;
64018;SDS011;66942;52.138;5.216;2023-10-19T05:01:55;7.6;;;6.9;;
64018;SDS011;66942;52.138;5.216;2023-10-19T05:03:31;7.6;;;6.9;;
64018;SDS011;66942;52.138;5.216;2023-10-19T05:05:07;8.2;;;5.6;;
64018;SDS011;66942;52.138;5.216;2023-10-19T05:06:44;6.6;;;6.0;;
64018;SDS011;66942;52.138;5.216;2023-10-19T05:09:56;5.6;;;5.11;;
64018;SDS011;66942;52.138;5.216;2023-10-19T05:11:33;4.91;;;3.6;;
64018;SDS011;66942;52.138;5.216;2023-10-19T05:13:09;6.2;;;4.0;;
64018;SDS011;66942;52.138;5.216;2023-10-19T05:16:21;4.61;;;3.6;;
64018;SDS011;66942;52.138;5.216;2023-10-19T05:17:57;3.4;;;3.1;;
64018;SDS011;66942;52.138;5.216;2023-10-19T05:19:33;4.8;;;3.5;;
64018;SDS011;66942;52.138;5.216;2023-10-19T05:22:47;5.5;;;3.3;;
64018;SDS011;66942;52.138;5.216;2023-10-19T05:24:23;3.5;;;2.7;;
64018;SDS011;66942;52.138;5.216;2023-10-19T05:26:00;3.7;;;2.31;;
64018;SDS011;66942;52.138;5.216;2023-10-19T05:27:37;4.61;;;2.21;;
64018;SDS011;66942;52.138;5.216;2023-10-19T05:30:49;3.6;;;2.1;;
64018;SDS011;66942;52.138;5.216;2023-10-19T05:32:25;5.4;;;2.6;;
64018;SDS011;66942;52.138;5.216;2023-10-19T05:34:01;3.9;;;2.31;;
64018;SDS011;66942;52.138;5.216;2023-10-19T05:37:14;5.7;;;2.31;;
64018;SDS011;66942;52.138;5.216;2023-10-19T05:38:50;6.3;;;2.31;;
64018;SDS011;66942;52.138;5.216;2023-10-19T05:40:26;5.5;;;2.1;;
64018;SDS011;66942;52.138;5.216;2023-10-19T05:43:38;4.0;;;2.21;;
64018;SDS011;66942;52.138;5.216;2023-10-19T05:45:14;3.8;;;1.9;;
64018;SDS011;66942;52.138;5.216;2023-10-19T05:46:51;5.6;;;2.4;;
64018;SDS011;66942;52.138;5.216;2023-10-19T05:48:28;5.7;;;2.31;;
64018;SDS011;66942;52.138;5.216;2023-10-19T05:51:41;4.3;;;2.0;;
64018;SDS011;66942;52.138;5.216;2023-10-19T05:53:17;4.7;;;2.4;;
64018;SDS011;66942;52.138;5.216;2023-10-19T05:54:53;3.6;;;2.0;;
64018;SDS011;66942;52.138;5.216;2023-10-19T05:58:06;4.8;;;2.31;;
64018;SDS011;66942;52.138;5.216;2023-10-19T05:59:42;4.3;;;2.6;;
64018;SDS011;66942;52.138;5.216;2023-10-19T06:01:19;3.5;;;2.1;;
64018;SDS011;66942;52.138;5.216;2023-10-19T06:04:32;6.3;;;2.21;;
64018;SDS011;66942;52.138;5.216;2023-10-19T06:06:08;3.8;;;2.0;;
64018;SDS011;66942;52.138;5.216;2023-10-19T06:07:44;5.2;;;2.0;;
64018;SDS011;66942;52.138;5.216;2023-10-19T06:09:21;4.8;;;2.1;;
64018;SDS011;66942;52.138;5.216;2023-10-19T06:12:33;4.8;;;2.4;;
64018;SDS011;66942;52.138;5.216;2023-10-19T06:14:09;4.2;;;2.31;;
64018;SDS011;66942;52.138;5.216;2023-10-19T06:15:46;4.0;;;2.0;;
64018;SDS011;66942;52.138;5.216;2023-10-19T06:19:00;5.4;;;3.4;;
64018;SDS011;66942;52.138;5.216;2023-10-19T06:20:36;4.8;;;2.31;;
64018;SDS011;66942;52.138;5.216;2023-10-19T06:22:12;4.3;;;2.1;;
64018;SDS011;66942;52.138;5.216;2023-10-19T06:25:24;6.0;;;2.6;;
64018;SDS011;66942;52.138;5.216;2023-10-19T06:27:00;5.8;;;2.1;;
64018;SDS011;66942;52.138;5.216;2023-10-19T06:28:36;4.5;;;2.21;;
64018;SDS011;66942;52.138;5.216;2023-10-19T06:31:50;5.9;;;2.7;;
64018;SDS011;66942;52.138;5.216;2023-10-19T06:33:26;6.8;;;2.5;;
64018;SDS011;66942;52.138;5.216;2023-10-19T06:35:02;4.3;;;2.6;;
64018;SDS011;66942;52.138;5.216;2023-10-19T06:36:38;13.2;;;6.8;;
64018;SDS011;66942;52.138;5.216;2023-10-19T06:39:50;4.3;;;2.7;;
64018;SDS011;66942;52.138;5.216;2023-10-19T06:41:26;5.9;;;2.9;;
64018;SDS011;66942;52.138;5.216;2023-10-19T06:43:03;7.2;;;3.5;;
64018;SDS011;66942;52.138;5.216;2023-10-19T06:46:17;6.4;;;3.4;;
64018;SDS011;66942;52.138;5.216;2023-10-19T06:47:53;5.0;;;2.4;;
64018;SDS011;66942;52.138;5.216;2023-10-19T06:49:29;8.31;;;3.5;;
64018;SDS011;66942;52.138;5.216;2023-10-19T06:52:42;4.91;;;2.5;;
64018;SDS011;66942;52.138;5.216;2023-10-19T06:54:18;7.4;;;2.9;;
64018;SDS011;66942;52.138;5.216;2023-10-19T06:55:54;5.0;;;2.6;;
64018;SDS011;66942;52.138;5.216;2023-10-19T06:57:31;5.4;;;2.9;;
64018;SDS011;66942;52.138;5.216;2023-10-19T07:00:44;4.7;;;2.5;;
64018;SDS011;66942;52.138;5.216;2023-10-19T07:02:20;3.6;;;2.31;;
64018;SDS011;66942;52.138;5.216;2023-10-19T07:03:56;9.1;;;2.8;;
64018;SDS011;66942;52.138;5.216;2023-10-19T07:07:08;5.2;;;2.31;;
64018;SDS011;66942;52.138;5.216;2023-10-19T07:08:44;5.8;;;2.6;;
64018;SDS011;66942;52.138;5.216;2023-10-19T07:10:20;6.6;;;3.0;;
64018;SDS011;66942;52.138;5.216;2023-10-19T07:13:33;5.8;;;2.7;;
64018;SDS011;66942;52.138;5.216;2023-10-19T07:15:09;7.3;;;3.5;;
64018;SDS011;66942;52.138;5.216;2023-10-19T07:16:46;5.3;;;2.9;;
64018;SDS011;66942;52.138;5.216;2023-10-19T07:19:58;6.8;;;2.4;;
64018;SDS011;66942;52.138;5.216;2023-10-19T07:21:34;3.6;;;1.6;;
64018;SDS011;66942;52.138;5.216;2023-10-19T07:23:10;4.7;;;2.5;;
64018;SDS011;66942;52.138;5.216;2023-10-19T07:24:46;6.4;;;2.7;;
64018;SDS011;66942;52.138;5.216;2023-10-19T07:27:58;6.4;;;2.7;;
64018;SDS011;66942;52.138;5.216;2023-10-19T07:29:34;5.11;;;2.6;;
64018;SDS011;66942;52.138;5.216;2023-10-19T07:31:11;33.3;;;11.6;;
64018;SDS011;66942;52.138;5.216;2023-10-19T07:34:24;6.3;;;3.1;;
64018;SDS011;66942;52.138;5.216;2023-10-19T07:36:00;5.9;;;3.4;;
64018;SDS011;66942;52.138;5.216;2023-10-19T07:37:36;6.1;;;3.6;;
64018;SDS011;66942;52.138;5.216;2023-10-19T07:40:49;5.4;;;3.0;;
64018;SDS011;66942;52.138;5.216;2023-10-19T07:42:26;5.4;;;2.7;;
64018;SDS011;66942;52.138;5.216;2023-10-19T07:44:03;7.0;;;2.7;;
64018;SDS011;66942;52.138;5.216;2023-10-19T07:45:39;5.7;;;2.7;;
64018;SDS011;66942;52.138;5.216;2023-10-19T07:48:52;7.7;;;3.7;;
64018;SDS011;66942;52.138;5.216;2023-10-19T07:50:28;8.4;;;3.7;;
64018;SDS011;66942;52.138;5.216;2023-10-19T07:52:04;5.11;;;2.4;;
64018;SDS011;66942;52.138;5.216;2023-10-19T07:55:17;6.0;;;2.9;;
64018;SDS011;66942;52.138;5.216;2023-10-19T07:56:55;6.3;;;3.1;;
64018;SDS011;66942;52.138;5.216;2023-10-19T07:58:31;5.5;;;3.1;;
64018;SDS011;66942;52.138;5.216;2023-10-19T08:01:45;10.5;;;3.0;;
64018;SDS011;66942;52.138;5.216;2023-10-19T08:03:21;5.6;;;3.2;;
64018;SDS011;66942;52.138;5.216;2023-10-19T08:04:57;9.21;;;3.4;;
64018;SDS011;66942;52.138;5.216;2023-10-19T08:06:33;7.0;;;3.3;;
64018;SDS011;66942;52.138;5.216;2023-10-19T08:09:46;6.8;;;3.3;;
64018;SDS011;66942;52.138;5.216;2023-10-19T08:11:22;8.9;;;3.9;;
64018;SDS011;66942;52.138;5.216;2023-10-19T08:12:59;6.3;;;3.2;;
64018;SDS011;66942;52.138;5.216;2023-10-19T08:16:13;7.0;;;3.1;;
64018;SDS011;66942;52.138;5.216;2023-10-19T08:17:49;7.0;;;3.1;;
64018;SDS011;66942;52.138;5.216;2023-10-19T08:19:28;10.6;;;3.7;;
64018;SDS011;66942;52.138;5.216;2023-10-19T08:22:40;7.1;;;3.1;;
64018;SDS011;66942;52.138;5.216;2023-10-19T08:24:17;8.31;;;3.4;;
64018;SDS011;66942;52.138;5.216;2023-10-19T08:25:54;5.9;;;3.0;;
64018;SDS011;66942;52.138;5.216;2023-10-19T08:27:31;6.8;;;3.1;;
64018;SDS011;66942;52.138;5.216;2023-10-19T08:30:43;6.1;;;3.3;;
64018;SDS011;66942;52.138;5.216;2023-10-19T08:32:21;9.1;;;3.3;;
64018;SDS011;66942;52.138;5.216;2023-10-19T08:33:57;6.4;;;3.2;;
64018;SDS011;66942;52.138;5.216;2023-10-19T08:37:10;5.8;;;3.0;;
64018;SDS011;66942;52.138;5.216;2023-10-19T08:38:46;9.4;;;3.4;;
64018;SDS011;66942;52.138;5.216;2023-10-19T08:40:22;9.5;;;3.8;;
64018;SDS011;66942;52.138;5.216;2023-10-19T08:43:38;13.2;;;4.3;;
64018;SDS011;66942;52.138;5.216;2023-10-19T08:45:14;7.4;;;2.7;;
64018;SDS011;66942;52.138;5.216;2023-10-19T08:46:51;12.8;;;3.7;;
64018;SDS011;66942;52.138;5.216;2023-10-19T08:48:27;8.5;;;3.4;;
64018;SDS011;66942;52.138;5.216;2023-10-19T08:51:43;7.0;;;3.4;;
64018;SDS011;66942;52.138;5.216;2023-10-19T08:53:20;7.5;;;3.6;;
64018;SDS011;66942;52.138;5.216;2023-10-19T08:54:58;8.1;;;3.8;;
64018;SDS011;66942;52.138;5.216;2023-10-19T08:58:10;8.2;;;3.8;;
64018;SDS011;66942;52.138;5.216;2023-10-19T08:59:46;7.7;;;3.6;;
64018;SDS011;66942;52.138;5.216;2023-10-19T09:01:22;8.31;;;3.5;;
64018;SDS011;66942;52.138;5.216;2023-10-19T09:04:40;10.9;;;4.0;;
64018;SDS011;66942;52.138;5.216;2023-10-19T09:06:17;4.91;;;3.2;;
64018;SDS011;66942;52.138;5.216;2023-10-19T09:07:53;6.3;;;2.8;;
64018;SDS011;66942;52.138;5.216;2023-10-19T09:09:31;9.21;;;3.8;;
64018;SDS011;66942;52.138;5.216;2023-10-19T09:12:45;6.1;;;3.2;;
64018;SDS011;66942;52.138;5.216;2023-10-19T09:14:36;6.2;;;2.9;;
64018;SDS011;66942;52.138;5.216;2023-10-19T09:16:12;6.9;;;2.8;;
64018;SDS011;66942;52.138;5.216;2023-10-19T09:17:49;6.4;;;2.31;;
64018;SDS011;66942;52.138;5.216;2023-10-19T09:21:15;4.61;;;2.21;;
64018;SDS011;66942;52.138;5.216;2023-10-19T09:22:52;5.9;;;2.6;;
64018;SDS011;66942;52.138;5.216;2023-10-19T09:24:28;7.1;;;2.5;;
64018;SDS011;66942;52.138;5.216;2023-10-19T09:26:05;7.1;;;2.8;;
64018;SDS011;66942;52.138;5.216;2023-10-19T09:29:18;10.0;;;2.9;;
64018;SDS011;66942;52.138;5.216;2023-10-19T09:30:54;7.2;;;2.9;;
64018;SDS011;66942;52.138;5.216;2023-10-19T09:32:31;9.31;;;3.4;;
64018;SDS011;66942;52.138;5.216;2023-10-19T09:35:45;6.8;;;2.9;;
64018;SDS011;66942;52.138;5.216;2023-10-19T09:37:22;6.8;;;2.7;;
64018;SDS011;66942;52.138;5.216;2023-10-19T09:38:59;7.2;;;2.6;;
64018;SDS011;66942;52.138;5.216;2023-10-19T09:42:12;8.0;;;3.1;;
64018;SDS011;66942;52.138;5.216;2023-10-19T09:43:52;5.2;;;2.8;;
64018;SDS011;66942;52.138;5.216;2023-10-19T09:45:29;9.31;;;3.0;;
64018;SDS011;66942;52.138;5.216;2023-10-19T09:47:09;9.5;;;2.7;;
64018;SDS011;66942;52.138;5.216;2023-10-19T09:50:24;5.8;;;2.6;;
64018;SDS011;66942;52.138;5.216;2023-10-19T09:52:01;8.2;;;2.9;;
64018;SDS011;66942;52.138;5.216;2023-10-19T09:53:39;8.2;;;2.9;;
64018;SDS011;66942;52.138;5.216;2023-10-19T09:57:02;7.6;;;3.0;;
64018;SDS011;66942;52.138;5.216;2023-10-19T09:58:46;8.0;;;2.8;;
64018;SDS011;66942;52.138;5.216;2023-10-19T10:00:26;6.1;;;2.6;;
64018;SDS011;66942;52.138;5.216;2023-10-19T10:02:03;8.31;;;3.2;;
64018;SDS011;66942;52.138;5.216;2023-10-19T10:03:42;7.2;;;2.8;;
64018;SDS011;66942;52.138;5.216;2023-10-19T10:07:33;7.2;;;2.9;;
64018;SDS011;66942;52.138;5.216;2023-10-19T10:09:09;6.8;;;2.7;;
64018;SDS011;66942;52.138;5.216;2023-10-19T10:10:45;6.1;;;2.7;;
64018;SDS011;66942;52.138;5.216;2023-10-19T10:12:23;6.9;;;3.4;;
64018;SDS011;66942;52.138;5.216;2023-10-19T10:15:58;8.31;;;2.5;;
64018;SDS011;66942;52.138;5.216;2023-10-19T10:17:35;6.6;;;2.7;;
64018;SDS011;66942;52.138;5.216;2023-10-19T10:19:13;7.7;;;2.6;;
64018;SDS011;66942;52.138;5.216;2023-10-19T10:21:04;10.1;;;3.5;;
64018;SDS011;66942;52.138;5.216;2023-10-19T10:22:41;9.21;;;3.2;;
64018;SDS011;66942;52.138;5.216;2023-10-19T10:25:55;8.1;;;2.8;;
64018;SDS011;66942;52.138;5.216;2023-10-19T10:27:35;8.1;;;3.4;;
64018;SDS011;66942;52.138;5.216;2023-10-19T10:29:13;8.6;;;3.0;;
64018;SDS011;66942;52.138;5.216;2023-10-19T10:32:56;10.5;;;3.3;;
64018;SDS011;66942;52.138;5.216;2023-10-19T10:34:43;10.1;;;2.9;;
64018;SDS011;66942;52.138;5.216;2023-10-19T10:36:20;9.0;;;3.3;;
64018;SDS011;66942;52.138;5.216;2023-10-19T10:37:57;7.5;;;3.1;;
64018;SDS011;66942;52.138;5.216;2023-10-19T10:39:35;5.6;;;2.6;;
64018;SDS011;66942;52.138;5.216;2023-10-19T10:43:04;10.9;;;3.3;;
64018;SDS011;66942;52.138;5.216;2023-10-19T10:44:42;8.0;;;3.3;;
64018;SDS011;66942;52.138;5.216;2023-10-19T10:46:22;10.9;;;3.2;;
64018;SDS011;66942;52.138;5.216;2023-10-19T10:47:59;6.5;;;3.0;;
64018;SDS011;66942;52.138;5.216;2023-10-19T10:51:25;7.4;;;2.9;;
64018;SDS011;66942;52.138;5.216;2023-10-19T10:53:02;8.81;;;3.1;;
64018;SDS011;66942;52.138;5.216;2023-10-19T10:54:40;8.2;;;3.3;;
64018;SDS011;66942;52.138;5.216;2023-10-19T10:56:16;9.6;;;3.2;;
64018;SDS011;66942;52.138;5.216;2023-10-19T10:59:30;7.1;;;2.8;;
64018;SDS011;66942;52.138;5.216;2023-10-19T11:01:06;7.1;;;2.8;;
64018;SDS011;66942;52.138;5.216;2023-10-19T11:02:43;7.0;;;2.7;;
64018;SDS011;66942;52.138;5.216;2023-10-19T11:04:21;9.5;;;3.5;;
64018;SDS011;66942;52.138;5.216;2023-10-19T11:07:39;12.1;;;3.2;;
64018;SDS011;66942;52.138;5.216;2023-10-19T11:09:16;9.21;;;3.5;;
64018;SDS011;66942;52.138;5.216;2023-10-19T11:10:52;11.7;;;3.5;;
64018;SDS011;66942;52.138;5.216;2023-10-19T11:14:08;8.81;;;3.2;;
64018;SDS011;66942;52.138;5.216;2023-10-19T11:15:48;6.9;;;2.7;;
64018;SDS011;66942;52.138;5.216;2023-10-19T11:17:25;8.1;;;2.4;;
64018;SDS011;66942;52.138;5.216;2023-10-19T11:19:02;8.31;;;2.9;;
64018;SDS011;66942;52.138;5.216;2023-10-19T11:22:15;4.91;;;2.6;;
64018;SDS011;66942;52.138;5.216;2023-10-19T11:23:52;6.0;;;2.6;;
64018;SDS011;66942;52.138;5.216;2023-10-19T11:25:29;7.2;;;2.7;;
64018;SDS011;66942;52.138;5.216;2023-10-19T11:28:43;6.7;;;2.4;;
64018;SDS011;66942;52.138;5.216;2023-10-19T11:30:22;8.4;;;2.7;;
64018;SDS011;66942;52.138;5.216;2023-10-19T11:32:00;7.4;;;2.9;;
64018;SDS011;66942;52.138;5.216;2023-10-19T11:35:12;8.1;;;2.8;;
64018;SDS011;66942;52.138;5.216;2023-10-19T11:36:52;9.21;;;2.8;;
64018;SDS011;66942;52.138;5.216;2023-10-19T11:38:28;5.7;;;2.31;;
64018;SDS011;66942;52.138;5.216;2023-10-19T11:40:05;8.1;;;2.9;;
64018;SDS011;66942;52.138;5.216;2023-10-19T11:43:18;9.71;;;2.6;;
64018;SDS011;66942;52.138;5.216;2023-10-19T11:44:55;8.2;;;2.8;;
64018;SDS011;66942;52.138;5.216;2023-10-19T11:46:32;8.4;;;2.6;;
64018;SDS011;66942;52.138;5.216;2023-10-19T11:49:45;6.5;;;2.6;;
64018;SDS011;66942;52.138;5.216;2023-10-19T11:51:21;7.0;;;2.4;;
64018;SDS011;66942;52.138;5.216;2023-10-19T11:52:57;7.1;;;2.9;;
64018;SDS011;66942;52.138;5.216;2023-10-19T11:54:33;7.4;;;2.6;;
64018;SDS011;66942;52.138;5.216;2023-10-19T11:57:47;8.31;;;2.8;;
64018;SDS011;66942;52.138;5.216;2023-10-19T11:59:23;7.5;;;2.4;;
64018;SDS011;66942;52.138;5.216;2023-10-19T12:01:01;8.4;;;2.9;;
64018;SDS011;66942;52.138;5.216;2023-10-19T12:04:14;6.3;;;2.31;;
64018;SDS011;66942;52.138;5.216;2023-10-19T12:05:51;6.9;;;2.7;;
64018;SDS011;66942;52.138;5.216;2023-10-19T12:07:28;7.9;;;2.6;;
64018;SDS011;66942;52.138;5.216;2023-10-19T12:10:40;7.7;;;2.5;;
64018;SDS011;66942;52.138;5.216;2023-10-19T12:12:16;7.2;;;2.7;;
64018;SDS011;66942;52.138;5.216;2023-10-19T12:13:52;8.0;;;2.8;;
64018;SDS011;66942;52.138;5.216;2023-10-19T12:15:29;9.81;;;3.1;;
64018;SDS011;66942;52.138;5.216;2023-10-19T12:18:42;8.31;;;2.9;;
64018;SDS011;66942;52.138;5.216;2023-10-19T12:20:19;7.3;;;2.8;;
64018;SDS011;66942;52.138;5.216;2023-10-19T12:21:55;7.3;;;2.8;;
64018;SDS011;66942;52.138;5.216;2023-10-19T12:25:09;8.2;;;2.8;;
64018;SDS011;66942;52.138;5.216;2023-10-19T12:26:45;9.4;;;2.8;;
64018;SDS011;66942;52.138;5.216;2023-10-19T12:28:21;9.4;;;2.8;;
64018;SDS011;66942;52.138;5.216;2023-10-19T12:31:34;7.8;;;2.5;;
64018;SDS011;66942;52.138;5.216;2023-10-19T12:33:11;7.5;;;2.7;;
64018;SDS011;66942;52.138;5.216;2023-10-19T12:34:47;7.0;;;2.5;;
64018;SDS011;66942;52.138;5.216;2023-10-19T12:37:59;7.6;;;2.5;;
64018;SDS011;66942;52.138;5.216;2023-10-19T12:39:35;8.81;;;3.0;;
64018;SDS011;66942;52.138;5.216;2023-10-19T12:41:12;8.81;;;3.0;;
64018;SDS011;66942;52.138;5.216;2023-10-19T12:42:48;7.6;;;2.8;;
64018;SDS011;66942;52.138;5.216;2023-10-19T12:46:01;7.8;;;2.8;;
64018;SDS011;66942;52.138;5.216;2023-10-19T12:47:37;7.3;;;2.9;;
64018;SDS011;66942;52.138;5.216;2023-10-19T12:49:13;8.4;;;2.7;;